createdAt,value
2023-01-13T00:00:38.231Z,97915.34
2023-01-13T00:03:07.406Z,97917.91
2023-01-13T00:05:38.601Z,97911.59
2023-01-13T00:08:07.374Z,97916.66
2023-01-13T00:10:36.402Z,97911.75
2023-01-13T00:13:06.390Z,97911.50
2023-01-13T00:15:35.362Z,97909.84
2023-01-13T00:18:04.218Z,97913.34
2023-01-13T00:20:32.803Z,97900.53
2023-01-13T00:23:04.355Z,97900.38
2023-01-13T00:25:33.678Z,97909.09
2023-01-13T00:28:02.265Z,97903.59
2023-01-13T00:30:30.857Z,97906.34
2023-01-13T00:32:59.440Z,97896.03
2023-01-13T00:35:28.329Z,97887.41
2023-01-13T00:37:56.906Z,97892.56
2023-01-13T00:40:26.950Z,97889.06
2023-01-13T00:43:13.138Z,97887.47
2023-01-13T00:45:41.759Z,97888.50
2023-01-13T00:48:10.339Z,97885.94
2023-01-13T00:50:39.062Z,97875.53
2023-01-13T00:53:07.991Z,97881.66
2023-01-13T00:55:37.899Z,97880.69
2023-01-13T00:58:06.683Z,97871.13
2023-01-13T01:00:35.484Z,97874.34
2023-01-13T01:03:07.338Z,97864.97
2023-01-13T01:05:35.973Z,97870.13
2023-01-13T01:08:04.688Z,97864.81
2023-01-13T01:10:33.282Z,97858.16
2023-01-13T01:13:03.226Z,97851.16
2023-01-13T01:15:31.731Z,97856.81
2023-01-13T01:18:00.307Z,97855.34
2023-01-13T01:20:28.943Z,97852.66
2023-01-13T01:22:57.544Z,97845.53
2023-01-13T01:25:26.287Z,97844.78
2023-01-13T01:27:55.594Z,97857.50
2023-01-13T01:30:25.546Z,97849.59
2023-01-13T01:32:54.124Z,97846.19
2023-01-13T01:35:22.807Z,97845.38
2023-01-13T01:37:51.358Z,97844.44
2023-01-13T01:40:20.233Z,97846.66
2023-01-13T01:43:06.352Z,97851.09
2023-01-13T01:45:36.645Z,97851.81
2023-01-13T01:48:06.494Z,97848.25
2023-01-13T01:50:35.423Z,97850.75
2023-01-13T01:53:08.562Z,97856.16
2023-01-13T01:55:37.887Z,97843.19
2023-01-13T01:58:10.525Z,97838.94
2023-01-13T02:00:40.481Z,97838.94
2023-01-13T02:03:09.569Z,97834.53
2023-01-13T02:05:38.879Z,97833.06
2023-01-13T02:08:09.492Z,97841.34
2023-01-13T02:10:38.251Z,97838.03
2023-01-13T02:13:07.162Z,97842.84
2023-01-13T02:15:42.003Z,97831.69
2023-01-13T02:18:39.663Z,97830.88
2023-01-13T02:21:31.891Z,97838.03
2023-01-13T02:24:52.775Z,97832.72
2023-01-13T02:27:49.123Z,97820.72
2023-01-13T02:30:44.941Z,97804.94
2023-01-13T02:33:27.900Z,97813.66
2023-01-13T02:36:01.652Z,97808.59
2023-01-13T02:38:34.098Z,97809.53
2023-01-13T02:41:20.385Z,97804.53
2023-01-13T02:44:08.970Z,97802.03
2023-01-13T02:46:45.485Z,97793.47
2023-01-13T02:49:21.577Z,97785.19
2023-01-13T02:51:50.408Z,97791.81
2023-01-13T02:54:22.274Z,97782.44
2023-01-13T02:56:52.591Z,97793.63
2023-01-13T02:59:21.709Z,97808.94
2023-01-13T03:01:53.369Z,97778.19
2023-01-13T03:04:47.725Z,97783.44
2023-01-13T03:07:43.840Z,97775.69
2023-01-13T03:10:21.169Z,97786.66
2023-01-13T03:12:56.868Z,97784.75
2023-01-13T03:15:36.948Z,97798.63
2023-01-13T03:18:14.606Z,97796.97
2023-01-13T03:20:49.178Z,97789.50
2023-01-13T03:23:20.683Z,97781.34
2023-01-13T03:25:56.106Z,97787.31
2023-01-13T03:28:29.414Z,97788.97
2023-01-13T03:31:00.546Z,97772.84
2023-01-13T03:33:33.541Z,97769.72
2023-01-13T03:36:05.487Z,97791.81
2023-01-13T03:38:36.994Z,97746.38
2023-01-13T03:41:08.361Z,97772.97
2023-01-13T03:43:57.474Z,97753.16
2023-01-13T03:46:30.989Z,97768.28
2023-01-13T03:49:03.070Z,97748.84
2023-01-13T03:51:33.354Z,97754.91
2023-01-13T03:54:04.652Z,97739.53
2023-01-13T03:56:37.481Z,97768.91
2023-01-13T03:59:08.054Z,97741.22
2023-01-13T04:01:43.050Z,97768.63
2023-01-13T04:04:13.993Z,97749.09
2023-01-13T04:06:48.638Z,97749.09
2023-01-13T04:09:21.224Z,97764.56
2023-01-13T04:11:54.779Z,97739.47
2023-01-13T04:14:24.564Z,97738.63
2023-01-13T04:16:55.897Z,97735.13
2023-01-13T04:19:25.888Z,97731.06
2023-01-13T04:21:54.636Z,97714.84
2023-01-13T04:24:23.198Z,97724.44
2023-01-13T04:26:51.858Z,97737.31
2023-01-13T04:29:20.507Z,97725.34
2023-01-13T04:31:49.173Z,97724.69
2023-01-13T04:34:17.819Z,97723.84
2023-01-13T04:36:47.753Z,97722.94
2023-01-13T04:39:16.786Z,97738.16
2023-01-13T04:42:02.328Z,97719.13
2023-01-13T04:44:35.261Z,97725.16
2023-01-13T04:47:03.846Z,97713.97
2023-01-13T04:49:33.342Z,97710.63
2023-01-13T04:52:04.079Z,97696.81
2023-01-13T04:54:32.729Z,97709.63
2023-01-13T04:57:01.334Z,97711.38
2023-01-13T04:59:29.973Z,97706.31
2023-01-13T05:01:58.717Z,97723.91
2023-01-13T05:04:27.458Z,97713.53
2023-01-13T05:06:56.066Z,97710.84
2023-01-13T05:09:26.266Z,97693.72
2023-01-13T05:12:12.558Z,97713.53
2023-01-13T05:14:58.970Z,97717.66
2023-01-13T05:17:27.949Z,97719.50
2023-01-13T05:19:56.604Z,97722.91
2023-01-13T05:22:42.694Z,97723.72
2023-01-13T05:25:25.541Z,97712.50
2023-01-13T05:27:56.243Z,97723.72
2023-01-13T05:30:26.648Z,97733.03
2023-01-13T05:32:55.449Z,97721.91
2023-01-13T05:35:24.068Z,97707.16
2023-01-13T05:37:52.973Z,97713.97
2023-01-13T05:40:40.781Z,97712.16
2023-01-13T05:43:21.307Z,97715.81
2023-01-13T05:45:51.710Z,97701.19
2023-01-13T05:48:21.792Z,97702.19
2023-01-13T05:50:51.070Z,97708.81
2023-01-13T05:53:20.690Z,97706.44
2023-01-13T05:55:51.187Z,97705.69
2023-01-13T05:58:21.604Z,97699.72
2023-01-13T06:00:50.525Z,97694.63
2023-01-13T06:03:21.067Z,97704.22
2023-01-13T06:05:51.352Z,97700.72
2023-01-13T06:08:20.256Z,97707.88
2023-01-13T06:10:50.208Z,97725.81
2023-01-13T06:13:18.872Z,97716.81
2023-01-13T06:15:47.711Z,97715.81
2023-01-13T06:18:16.441Z,97735.84
2023-01-13T06:20:45.226Z,97728.63
2023-01-13T06:23:13.941Z,97729.44
2023-01-13T06:25:47.691Z,97730.38
2023-01-13T06:28:17.715Z,97732.94
2023-01-13T06:30:48.219Z,97736.44
2023-01-13T06:33:18.620Z,97730.09
2023-01-13T06:35:50.498Z,97727.63
2023-01-13T06:38:20.702Z,97744.56
2023-01-13T06:40:49.868Z,97727.44
2023-01-13T06:43:19.147Z,97721.53
2023-01-13T06:45:50.353Z,97711.13
2023-01-13T06:48:19.637Z,97721.63
2023-01-13T06:50:48.335Z,97720.63
2023-01-13T06:53:17.090Z,97718.25
2023-01-13T06:55:45.721Z,97709.75
2023-01-13T06:58:14.771Z,97712.88
2023-01-13T07:00:44.890Z,97709.66
2023-01-13T07:03:14.790Z,97711.59
2023-01-13T07:05:44.768Z,97710.84
2023-01-13T07:08:13.425Z,97703.13
2023-01-13T07:10:42.070Z,97701.63
2023-01-13T07:13:28.080Z,97704.75
2023-01-13T07:15:59.714Z,97718.47
2023-01-13T07:18:31.582Z,97716.94
2023-01-13T07:21:01.636Z,97735.03
2023-01-13T07:23:31.356Z,97715.25
2023-01-13T07:26:01.117Z,97699.06
2023-01-13T07:28:31.092Z,97699.97
2023-01-13T07:31:01.635Z,97708.38
2023-01-13T07:33:33.131Z,97727.97
2023-01-13T07:36:03.583Z,97720.22
2023-01-13T07:38:32.838Z,97727.97
2023-01-13T07:41:22.984Z,97728.06
2023-01-13T07:43:51.348Z,97733.28
2023-01-13T07:46:21.734Z,97719.41
2023-01-13T07:48:50.619Z,97721.81
2023-01-13T07:51:19.513Z,97707.28
2023-01-13T07:53:48.175Z,97718.88
2023-01-13T07:56:16.930Z,97710.31
2023-01-13T07:58:50.233Z,97718.25
2023-01-13T08:01:21.268Z,97723.94
2023-01-13T08:03:50.108Z,97717.31
2023-01-13T08:06:18.955Z,97722.53
2023-01-13T08:08:47.680Z,97720.63
2023-01-13T08:11:16.397Z,97730.75
2023-01-13T08:13:45.152Z,97735.91
2023-01-13T08:16:15.164Z,97736.56
2023-01-13T08:18:45.248Z,97737.38
2023-01-13T08:21:15.323Z,97745.22
2023-01-13T08:23:45.675Z,97755.16
2023-01-13T08:26:16.080Z,97757.00
2023-01-13T08:28:45.144Z,97735.41
2023-01-13T08:31:17.129Z,97778.75
2023-01-13T08:33:47.593Z,97775.44
2023-01-13T08:36:18.385Z,97766.72
2023-01-13T08:38:47.108Z,97765.13
2023-01-13T08:41:37.629Z,97774.13
2023-01-13T08:44:09.216Z,97766.50
2023-01-13T08:46:37.942Z,97777.97
2023-01-13T08:49:08.103Z,97801.44
2023-01-13T08:51:37.020Z,97805.69
2023-01-13T08:54:06.252Z,97825.41
2023-01-13T08:56:35.816Z,97813.97
2023-01-13T08:59:09.838Z,97832.97
2023-01-13T09:01:39.397Z,97829.00
2023-01-13T09:04:13.498Z,97844.72
2023-01-13T09:06:42.333Z,97867.22
2023-01-13T09:09:10.987Z,97865.09
2023-01-13T09:12:01.124Z,97882.69
2023-01-13T09:14:31.926Z,97901.50
2023-01-13T09:17:02.145Z,97895.50
2023-01-13T09:19:32.196Z,97890.72
2023-01-13T09:22:01.110Z,97893.16
2023-01-13T09:24:30.040Z,97898.81
2023-01-13T09:26:59.302Z,97893.81
2023-01-13T09:29:28.238Z,97911.44
2023-01-13T09:31:58.066Z,97893.50
2023-01-13T09:34:44.682Z,97894.94
2023-01-13T09:37:14.772Z,97899.09
2023-01-13T09:39:43.534Z,97888.59
2023-01-13T09:42:46.003Z,97908.81
2023-01-13T09:45:17.129Z,97913.78
2023-01-13T09:47:51.144Z,97909.28
2023-01-13T09:50:30.690Z,97908.22
2023-01-13T09:53:00.759Z,97908.88
2023-01-13T09:55:33.901Z,97897.59
2023-01-13T09:58:03.987Z,97913.03
2023-01-13T10:00:37.463Z,97900.59
2023-01-13T10:03:22.628Z,97903.78
2023-01-13T10:05:56.648Z,97916.94
2023-01-13T10:08:28.111Z,97920.91
2023-01-13T10:10:59.395Z,97928.56
2023-01-13T10:13:29.170Z,97919.19
2023-01-13T10:16:11.768Z,97921.28
2023-01-13T10:18:46.586Z,97913.97
2023-01-13T10:21:27.033Z,97919.81
2023-01-13T10:24:02.640Z,97937.25
2023-01-13T10:26:46.024Z,97917.72
2023-01-13T10:29:24.813Z,97924.09
2023-01-13T10:31:54.263Z,97922.13
2023-01-13T10:34:23.896Z,97922.88
2023-01-13T10:37:01.593Z,97937.56
2023-01-13T10:39:40.946Z,97940.44
2023-01-13T10:42:15.152Z,97942.91
2023-01-13T10:44:51.938Z,97940.81
2023-01-13T10:47:24.654Z,97935.03
2023-01-13T10:50:14.348Z,97943.97
2023-01-13T10:53:01.111Z,97951.31
2023-01-13T10:55:33.319Z,97953.97
2023-01-13T10:58:14.917Z,97962.50
2023-01-13T11:00:43.642Z,97969.31
2023-01-13T11:03:16.760Z,97968.53
2023-01-13T11:05:53.952Z,97942.72
2023-01-13T11:08:24.726Z,97945.34
2023-01-13T11:10:56.337Z,97956.84
2023-01-13T11:13:31.315Z,97936.09
2023-01-13T11:16:02.094Z,97948.81
2023-01-13T11:18:43.580Z,97958.97
2023-01-13T11:21:21.908Z,97951.78
2023-01-13T11:23:55.521Z,97969.78
2023-01-13T11:26:31.310Z,97960.28
2023-01-13T11:29:03.787Z,97980.84
2023-01-13T11:31:36.048Z,97970.13
2023-01-13T11:34:08.221Z,97985.28
2023-01-13T11:36:40.493Z,97990.28
2023-01-13T11:39:19.218Z,97950.28
2023-01-13T11:42:13.743Z,97981.94
2023-01-13T11:44:46.396Z,97976.25
2023-01-13T11:47:15.595Z,97981.66
2023-01-13T11:49:48.668Z,97982.28
2023-01-13T11:52:22.619Z,97981.66
2023-01-13T11:55:11.344Z,97983.50
2023-01-13T11:58:07.960Z,97979.19
2023-01-13T12:00:45.899Z,97970.28
2023-01-13T12:03:25.892Z,97967.91
2023-01-13T12:06:03.458Z,97967.28
2023-01-13T12:09:05.930Z,97941.59
2023-01-13T12:11:58.320Z,97947.81
2023-01-13T12:14:37.460Z,97952.97
2023-01-13T12:17:12.888Z,97950.38
2023-01-13T12:19:45.174Z,97948.78
2023-01-13T12:22:14.904Z,97957.78
2023-01-13T12:24:49.402Z,97969.19
2023-01-13T12:27:22.833Z,97975.47
2023-01-13T12:29:58.267Z,97971.13
2023-01-13T12:32:34.349Z,97970.78
2023-01-13T12:35:18.676Z,97979.69
2023-01-13T12:37:51.589Z,97978.72
2023-01-13T12:40:30.397Z,97981.66
2023-01-13T12:43:26.245Z,97987.97
2023-01-13T12:45:56.320Z,97977.34
2023-01-13T12:48:49.097Z,97979.97
2023-01-13T12:51:26.213Z,98001.75
2023-01-13T12:53:56.297Z,98003.53
2023-01-13T12:56:42.132Z,98016.84
2023-01-13T12:59:48.920Z,98001.97
2023-01-13T13:02:38.794Z,98016.41
2023-01-13T13:05:38.377Z,98006.81
2023-01-13T13:08:13.256Z,98020.25
2023-01-13T13:10:43.983Z,97997.16
2023-01-13T13:13:22.635Z,98005.16
2023-01-13T13:15:52.450Z,98009.13
2023-01-13T13:18:28.486Z,98008.13
2023-01-13T13:21:01.666Z,98000.50
2023-01-13T13:23:47.988Z,97998.72
2023-01-13T13:26:37.547Z,97997.16
2023-01-13T13:29:42.929Z,97991.47
2023-01-13T13:32:42.506Z,97991.19
2023-01-13T13:35:32.084Z,98024.75
2023-01-13T13:38:29.123Z,98033.41
2023-01-13T13:41:15.233Z,98019.19
2023-01-13T13:44:03.304Z,98017.97
2023-01-13T13:46:49.466Z,98016.19
2023-01-13T13:49:19.692Z,98020.91
2023-01-13T13:51:55.720Z,98021.19
2023-01-13T13:54:25.040Z,98028.03
2023-01-13T13:56:53.957Z,98023.13
2023-01-13T13:59:26.054Z,98051.75
2023-01-13T14:02:01.680Z,98044.56
2023-01-13T14:04:32.651Z,98067.38
2023-01-13T14:07:04.896Z,98057.94
2023-01-13T14:09:42.917Z,98078.25
2023-01-13T14:12:19.764Z,98124.50
2023-01-13T14:14:49.163Z,98094.88
2023-01-13T14:17:21.255Z,98130.16
2023-01-13T14:19:54.203Z,98116.78
2023-01-13T14:22:24.320Z,98125.28
2023-01-13T14:24:57.696Z,98127.72
2023-01-13T14:27:28.435Z,98113.94
2023-01-13T14:29:59.114Z,98125.75
2023-01-13T14:32:32.567Z,98107.03
2023-01-13T14:35:02.805Z,98117.59
2023-01-13T14:37:36.489Z,98095.16
2023-01-13T14:40:05.749Z,98100.59
2023-01-13T14:42:35.531Z,98118.38
2023-01-13T14:45:04.583Z,98111.56
2023-01-13T14:47:34.756Z,98119.63
2023-01-13T14:50:07.711Z,98101.00
2023-01-13T14:52:39.040Z,98112.81
2023-01-13T14:55:24.298Z,98122.94
2023-01-13T14:57:53.122Z,98120.34
2023-01-13T15:00:24.510Z,98123.25
2023-01-13T15:03:07.523Z,98128.03
2023-01-13T15:05:38.438Z,98137.47
2023-01-13T15:08:33.455Z,98143.13
2023-01-13T15:11:05.251Z,98133.38
2023-01-13T15:13:42.865Z,98129.91
2023-01-13T15:16:18.898Z,98140.06
2023-01-13T15:18:48.184Z,98138.75
2023-01-13T15:21:17.355Z,98147.38
2023-01-13T15:23:48.200Z,98165.47
2023-01-13T15:26:25.749Z,98165.34
2023-01-13T15:28:55.793Z,98151.59
2023-01-13T15:31:25.303Z,98158.66
2023-01-13T15:33:54.357Z,98152.13
2023-01-13T15:36:28.444Z,98162.47
2023-01-13T15:38:59.709Z,98153.00
2023-01-13T15:41:48.493Z,98167.19
2023-01-13T15:44:35.722Z,98174.56
2023-01-13T15:47:06.252Z,98172.25
2023-01-13T15:49:37.736Z,98167.81
2023-01-13T15:52:15.271Z,98172.91
2023-01-13T15:54:45.250Z,98178.81
2023-01-13T15:57:22.208Z,98187.03
2023-01-13T15:59:51.434Z,98189.97
2023-01-13T16:02:22.318Z,98195.75
2023-01-13T16:04:53.898Z,98211.09
2023-01-13T16:07:23.844Z,98201.41
2023-01-13T16:09:54.220Z,98215.56
2023-01-13T16:12:22.937Z,98224.16
2023-01-13T16:14:51.988Z,98216.34
2023-01-13T16:17:22.913Z,98211.22
2023-01-13T16:19:52.125Z,98223.91
2023-01-13T16:22:20.805Z,98230.97
2023-01-13T16:24:49.932Z,98241.13
2023-01-13T16:27:21.225Z,98250.59
2023-01-13T16:29:50.537Z,98243.16
2023-01-13T16:32:21.005Z,98252.41
2023-01-13T16:34:50.084Z,98252.34
2023-01-13T16:37:22.122Z,98250.31
2023-01-13T16:39:51.764Z,98249.72
2023-01-13T16:42:22.156Z,98255.94
2023-01-13T16:44:52.848Z,98253.66
2023-01-13T16:47:22.903Z,98255.53
2023-01-13T16:49:51.971Z,98261.47
2023-01-13T16:52:20.900Z,98269.22
2023-01-13T16:54:49.526Z,98269.28
2023-01-13T16:57:18.339Z,98266.88
2023-01-13T16:59:48.522Z,98272.84
2023-01-13T17:02:20.219Z,98275.38
2023-01-13T17:04:49.579Z,98282.22
2023-01-13T17:07:18.826Z,98284.84
2023-01-13T17:09:47.645Z,98291.59
2023-01-13T17:12:16.333Z,98300.31
2023-01-13T17:14:45.169Z,98303.63
2023-01-13T17:17:23.758Z,98310.66
2023-01-13T17:19:53.611Z,98307.38
2023-01-13T17:22:22.831Z,98318.56
2023-01-13T17:24:51.512Z,98307.38
2023-01-13T17:27:21.399Z,98327.00
2023-01-13T17:29:50.141Z,98329.63
2023-01-13T17:32:23.011Z,98332.28
2023-01-13T17:34:53.677Z,98338.25
2023-01-13T17:37:22.681Z,98343.34
2023-01-13T17:39:53.473Z,98323.66
2023-01-13T17:42:23.749Z,98330.28
2023-01-13T17:44:56.351Z,98327.56
2023-01-13T17:47:26.720Z,98335.22
2023-01-13T17:49:55.454Z,98336.78
2023-01-13T17:52:24.112Z,98350.47
2023-01-13T17:54:52.739Z,98341.72
2023-01-13T17:57:21.546Z,98351.94
2023-01-13T17:59:50.444Z,98346.88
2023-01-13T18:02:19.447Z,98357.97
2023-01-13T18:04:49.946Z,98363.00
2023-01-13T18:07:18.862Z,98363.88
2023-01-13T18:09:47.743Z,98375.75
2023-01-13T18:12:16.521Z,98368.84
2023-01-13T18:14:45.198Z,98361.19
2023-01-13T18:17:13.822Z,98364.66
2023-01-13T18:20:00.127Z,98370.13
2023-01-13T18:22:46.920Z,98372.91
2023-01-13T18:25:38.415Z,98384.91
2023-01-13T18:28:07.136Z,98393.69
2023-01-13T18:30:35.877Z,98387.00
2023-01-13T18:33:04.599Z,98387.94
2023-01-13T18:35:33.482Z,98398.31
2023-01-13T18:38:03.516Z,98395.69
2023-01-13T18:40:32.190Z,98397.50
2023-01-13T18:42:59.919Z,98395.19
2023-01-13T18:45:29.953Z,98422.59
2023-01-13T18:48:00.159Z,98408.09
2023-01-13T18:50:29.203Z,98411.59
2023-01-13T18:52:57.926Z,98410.94
2023-01-13T18:55:28.848Z,98424.75
2023-01-13T18:57:58.671Z,98434.28
2023-01-13T19:00:27.942Z,98440.44
2023-01-13T19:05:35.644Z,98445.72
2023-01-13T19:08:04.915Z,98434.69
2023-01-13T19:10:36.195Z,98445.75
2023-01-13T19:13:05.095Z,98441.69
2023-01-13T19:15:33.869Z,98445.09
2023-01-13T19:18:02.554Z,98457.97
2023-01-13T19:20:31.439Z,98457.97
2023-01-13T19:23:00.126Z,98474.31
2023-01-13T19:25:28.919Z,98473.34
2023-01-13T19:27:58.890Z,98476.13
2023-01-13T19:30:27.700Z,98474.47
2023-01-13T19:32:56.370Z,98482.13
2023-01-13T19:35:24.986Z,98491.56
2023-01-13T19:37:54.076Z,98501.13
2023-01-13T19:40:22.718Z,98502.03
2023-01-13T19:43:08.981Z,98506.25
2023-01-13T19:45:38.996Z,98508.00
2023-01-13T19:48:08.524Z,98516.59
2023-01-13T19:50:38.728Z,98524.28
2023-01-13T19:53:07.715Z,98530.91
2023-01-13T19:55:36.415Z,98535.97
2023-01-13T19:58:05.058Z,98542.81
2023-01-13T20:00:34.835Z,98535.22
2023-01-13T20:03:08.079Z,98544.72
2023-01-13T20:05:36.897Z,98541.25
2023-01-13T20:08:06.162Z,98550.56
2023-01-13T20:10:34.899Z,98545.59
2023-01-13T20:13:03.728Z,98552.31
2023-01-13T20:15:32.740Z,98551.41
2023-01-13T20:18:01.756Z,98549.00
2023-01-13T20:20:31.865Z,98546.66
2023-01-13T20:23:00.543Z,98546.72
2023-01-13T20:25:29.788Z,98550.13
2023-01-13T20:28:00.565Z,98556.00
2023-01-13T20:30:29.325Z,98557.66
2023-01-13T20:32:58.362Z,98562.88
2023-01-13T20:35:29.820Z,98571.38
2023-01-13T20:37:59.912Z,98577.47
2023-01-13T20:40:28.676Z,98562.94
2023-01-13T20:42:56.860Z,98568.25
2023-01-13T20:45:26.079Z,98568.25
2023-01-13T20:47:55.617Z,98575.13
2023-01-13T20:50:24.348Z,98568.41
2023-01-13T20:52:53.528Z,98564.88
2023-01-13T20:55:23.696Z,98562.59
2023-01-13T20:57:52.381Z,98566.84
2023-01-13T21:00:21.934Z,98565.38
2023-01-13T21:02:50.681Z,98573.19
2023-01-13T21:05:19.483Z,98574.03
2023-01-13T21:07:48.297Z,98566.41
2023-01-13T21:10:17.223Z,98562.94
2023-01-13T21:13:05.266Z,98562.06
2023-01-13T21:15:33.988Z,98573.06
2023-01-13T21:18:19.946Z,98585.91
2023-01-13T21:20:50.728Z,98587.47
2023-01-13T21:23:19.438Z,98579.81
2023-01-13T21:25:48.432Z,98594.38
2023-01-13T21:28:19.103Z,98590.09
2023-01-13T21:30:47.963Z,98586.63
2023-01-13T21:33:16.802Z,98597.66
2023-01-13T21:35:45.606Z,98601.16
2023-01-13T21:38:14.349Z,98602.94
2023-01-13T21:40:43.154Z,98599.56
2023-01-13T21:43:31.347Z,98589.44
2023-01-13T21:46:19.023Z,98592.78
2023-01-13T21:48:47.765Z,98591.91
2023-01-13T21:51:16.474Z,98613.34
2023-01-13T21:53:45.113Z,98608.22
2023-01-13T21:56:13.801Z,98620.31
2023-01-13T21:58:43.016Z,98625.50
2023-01-13T22:01:13.118Z,98626.34
2023-01-13T22:03:56.249Z,98601.75
2023-01-13T22:06:25.306Z,98605.09
2023-01-13T22:08:55.506Z,98599.19
2023-01-13T22:11:24.551Z,98644.47
2023-01-13T22:14:09.304Z,98641.91
2023-01-13T22:16:42.229Z,98648.72
2023-01-13T22:19:11.710Z,98633.38
2023-01-13T22:21:40.888Z,98635.19
2023-01-13T22:24:09.892Z,98635.13
2023-01-13T22:26:38.808Z,98640.03
2023-01-13T22:29:07.479Z,98641.06
2023-01-13T22:31:36.217Z,98654.06
2023-01-13T22:34:06.215Z,98650.81
2023-01-13T22:36:35.079Z,98644.94
2023-01-13T22:39:04.748Z,98650.13
2023-01-13T22:41:33.408Z,98649.38
2023-01-13T22:44:02.224Z,98641.69
2023-01-13T22:46:30.829Z,98642.56
2023-01-13T22:48:59.581Z,98649.44
2023-01-13T22:51:30.502Z,98635.00
2023-01-13T22:53:59.127Z,98636.00
2023-01-13T22:56:28.584Z,98629.28
2023-01-13T22:58:57.986Z,98638.63
2023-01-13T23:01:27.826Z,98639.50
2023-01-13T23:03:56.727Z,98629.38
2023-01-13T23:06:28.577Z,98634.44
2023-01-13T23:08:57.351Z,98629.38
2023-01-13T23:11:27.529Z,98635.34
2023-01-13T23:13:59.421Z,98644.75
2023-01-13T23:16:29.028Z,98643.91
2023-01-13T23:18:57.812Z,98654.16
2023-01-13T23:21:30.014Z,98657.66
2023-01-13T23:23:59.107Z,98661.03
2023-01-13T23:26:28.409Z,98656.75
2023-01-13T23:29:00.443Z,98656.69
2023-01-13T23:31:29.182Z,98661.88
2023-01-13T23:33:57.922Z,98659.25
2023-01-13T23:36:29.173Z,98659.25
2023-01-13T23:38:59.275Z,98659.97
2023-01-13T23:41:28.915Z,98667.53
2023-01-13T23:43:59.600Z,98661.56
2023-01-13T23:46:28.820Z,98667.66
2023-01-13T23:48:57.578Z,98664.19
2023-01-13T23:51:27.444Z,98652.19
2023-01-13T23:53:57.726Z,98663.41
2023-01-13T23:56:28.266Z,98651.63
2023-01-13T23:58:57.339Z,98646.53
